createdAt,value
2023-04-08T00:00:43.639Z,28.64
2023-04-08T00:03:27.509Z,28.55
2023-04-08T00:06:13.823Z,28.32
2023-04-08T00:08:57.064Z,28.75
2023-04-08T00:11:41.336Z,28.56
2023-04-08T00:14:25.048Z,28.72
2023-04-08T00:17:07.483Z,28.79
2023-04-08T00:19:56.489Z,28.66
2023-04-08T00:22:45.760Z,28.54
2023-04-08T00:25:25.423Z,28.30
2023-04-08T00:28:09.418Z,28.63
2023-04-08T00:30:47.680Z,28.38
2023-04-08T00:33:25.739Z,28.53
2023-04-08T00:36:12.438Z,28.35
2023-04-08T00:38:56.229Z,28.78
2023-04-08T00:41:41.846Z,28.52
2023-04-08T00:44:25.743Z,28.73
2023-04-08T00:47:11.720Z,28.58
2023-04-08T00:49:55.434Z,28.65
2023-04-08T00:52:32.131Z,28.66
2023-04-08T00:55:14.373Z,28.68
2023-04-08T00:58:04.138Z,28.79
2023-04-08T01:00:48.469Z,28.45
2023-04-08T01:03:52.467Z,28.66
2023-04-08T01:06:48.002Z,28.78
2023-04-08T01:09:39.310Z,28.70
2023-04-08T01:12:30.143Z,28.61
2023-04-08T01:15:13.160Z,28.53
2023-04-08T01:17:50.546Z,28.19
2023-04-08T01:20:32.000Z,28.60
2023-04-08T01:23:33.059Z,28.32
2023-04-08T01:26:18.751Z,28.49
2023-04-08T01:29:06.499Z,28.65
2023-04-08T01:31:48.706Z,28.65
2023-04-08T01:34:33.794Z,28.62
2023-04-08T01:37:20.314Z,28.91
2023-04-08T01:40:00.367Z,29.10
2023-04-08T01:42:46.707Z,28.93
2023-04-08T01:45:31.675Z,29.06
2023-04-08T01:48:08.535Z,28.68
2023-04-08T01:50:48.449Z,28.75
2023-04-08T01:53:26.577Z,28.76
2023-04-08T01:56:09.077Z,28.76
2023-04-08T01:59:25.620Z,28.92
2023-04-08T02:02:09.208Z,28.83
2023-04-08T02:04:50.516Z,28.70
2023-04-08T02:07:32.402Z,28.81
2023-04-08T02:10:10.900Z,29.08
2023-04-08T02:12:55.269Z,28.96
2023-04-08T02:15:45.468Z,28.96
2023-04-08T02:18:35.241Z,29.01
2023-04-08T02:21:24.105Z,29.20
2023-04-08T02:24:09.312Z,29.13
2023-04-08T02:26:51.629Z,28.90
2023-04-08T02:29:40.950Z,28.90
2023-04-08T02:32:21.344Z,28.70
2023-04-08T02:35:04.206Z,29.05
2023-04-08T02:37:48.957Z,29.06
2023-04-08T02:40:35.523Z,28.96
2023-04-08T02:43:20.648Z,29.25
2023-04-08T02:45:59.601Z,28.92
2023-04-08T02:48:40.981Z,29.02
2023-04-08T02:51:19.590Z,29.27
2023-04-08T02:53:59.709Z,29.18
2023-04-08T02:56:38.444Z,29.15
2023-04-08T02:59:27.222Z,29.50
2023-04-08T03:02:08.313Z,29.19
2023-04-08T03:04:57.703Z,29.29
2023-04-08T03:07:38.677Z,29.44
2023-04-08T03:10:18.591Z,29.09
2023-04-08T03:12:57.367Z,29.10
2023-04-08T03:15:38.614Z,29.34
2023-04-08T03:18:18.622Z,29.30
2023-04-08T03:21:04.075Z,29.38
2023-04-08T03:23:44.702Z,29.43
2023-04-08T03:26:29.224Z,29.06
2023-04-08T03:29:06.966Z,29.26
2023-04-08T03:31:52.104Z,29.33
2023-04-08T03:34:33.053Z,29.35
2023-04-08T03:37:11.755Z,29.13
2023-04-08T03:39:50.777Z,29.11
2023-04-08T03:42:35.647Z,29.45
2023-04-08T03:45:11.355Z,29.25
2023-04-08T03:47:55.124Z,29.65
2023-04-08T03:50:31.344Z,29.56
2023-04-08T03:53:16.679Z,29.30
2023-04-08T03:55:53.672Z,29.33
2023-04-08T03:58:37.455Z,29.39
2023-04-08T04:01:22.725Z,29.21
2023-04-08T04:04:05.013Z,29.47
2023-04-08T04:06:40.512Z,28.99
2023-04-08T04:09:24.671Z,29.21
2023-04-08T04:12:05.910Z,29.10
2023-04-08T04:14:49.103Z,29.20
2023-04-08T04:17:35.491Z,29.20
2023-04-08T04:20:16.882Z,28.89
2023-04-08T04:22:57.251Z,29.20
2023-04-08T04:25:41.910Z,29.34
2023-04-08T04:28:20.723Z,29.06
2023-04-08T04:31:09.257Z,28.63
2023-04-08T04:33:45.560Z,29.41
2023-04-08T04:36:24.207Z,29.14
2023-04-08T04:39:08.120Z,29.09
2023-04-08T04:41:51.989Z,29.17
2023-04-08T04:44:33.123Z,29.16
2023-04-08T04:47:16.477Z,29.40
2023-04-08T04:50:03.192Z,29.22
2023-04-08T04:52:43.675Z,29.10
2023-04-08T04:55:32.075Z,29.17
2023-04-08T04:58:11.789Z,29.08
2023-04-08T05:00:54.071Z,29.29
2023-04-08T05:03:33.057Z,29.34
2023-04-08T05:06:20.297Z,29.29
2023-04-08T05:09:09.768Z,29.35
2023-04-08T05:11:45.306Z,29.25
2023-04-08T05:14:26.799Z,29.07
2023-04-08T05:17:07.997Z,29.10
2023-04-08T05:19:51.621Z,29.27
2023-04-08T05:22:38.901Z,29.28
2023-04-08T05:25:25.456Z,29.12
2023-04-08T05:28:12.986Z,29.49
2023-04-08T05:31:02.188Z,29.30
2023-04-08T05:33:47.222Z,29.37
2023-04-08T05:36:34.138Z,28.99
2023-04-08T05:39:15.913Z,29.23
2023-04-08T05:41:56.837Z,29.13
2023-04-08T05:44:44.534Z,29.25
2023-04-08T05:47:28.871Z,29.35
2023-04-08T05:50:08.008Z,29.32
2023-04-08T05:52:48.878Z,29.10
2023-04-08T05:55:30.060Z,29.26
2023-04-08T05:58:14.062Z,29.45
2023-04-08T06:00:55.344Z,29.35
2023-04-08T06:03:40.644Z,29.57
2023-04-08T06:06:21.526Z,29.59
2023-04-08T06:09:00.916Z,29.28
2023-04-08T06:11:49.867Z,29.27
2023-04-08T06:14:36.726Z,29.10
2023-04-08T06:17:17.262Z,29.25
2023-04-08T06:20:03.112Z,29.41
2023-04-08T06:22:38.141Z,29.16
2023-04-08T06:25:10.302Z,29.35
2023-04-08T06:27:49.019Z,29.38
2023-04-08T06:30:24.246Z,29.26
2023-04-08T06:32:55.557Z,29.17
2023-04-08T06:35:32.640Z,29.25
2023-04-08T06:38:06.042Z,29.13
2023-04-08T06:40:43.065Z,29.16
2023-04-08T06:43:21.305Z,29.12
2023-04-08T06:45:54.667Z,29.11
2023-04-08T06:48:30.347Z,29.01
2023-04-08T06:51:07.920Z,29.08
2023-04-08T06:53:46.713Z,29.18
2023-04-08T06:56:21.540Z,29.12
2023-04-08T06:58:57.314Z,29.41
2023-04-08T07:01:32.103Z,29.20
2023-04-08T07:04:03.314Z,29.04
2023-04-08T07:06:41.636Z,29.38
2023-04-08T07:09:15.090Z,29.34
2023-04-08T07:11:55.649Z,29.39
2023-04-08T07:14:34.245Z,29.24
2023-04-08T07:17:09.839Z,29.47
2023-04-08T07:19:46.042Z,29.60
2023-04-08T07:22:22.647Z,29.25
2023-04-08T07:24:58.184Z,29.46
2023-04-08T07:27:34.708Z,29.24
2023-04-08T07:30:07.916Z,29.63
2023-04-08T07:32:46.965Z,29.14
2023-04-08T07:35:29.777Z,29.23
2023-04-08T07:38:12.296Z,29.13
2023-04-08T07:40:42.854Z,29.09
2023-04-08T07:43:21.791Z,29.02
2023-04-08T07:45:55.028Z,29.16
2023-04-08T07:48:35.012Z,28.85
2023-04-08T07:51:20.208Z,29.20
2023-04-08T07:53:58.264Z,28.79
2023-04-08T07:56:26.996Z,29.15
2023-04-08T07:59:05.818Z,29.08
2023-04-08T08:01:36.555Z,28.97
2023-04-08T08:04:13.881Z,29.14
2023-04-08T08:06:58.411Z,28.94
2023-04-08T08:09:34.554Z,28.76
2023-04-08T08:12:15.485Z,28.73
2023-04-08T08:14:54.954Z,28.93
2023-04-08T08:17:33.666Z,28.63
2023-04-08T08:20:10.751Z,28.91
2023-04-08T08:22:56.620Z,28.78
2023-04-08T08:25:30.951Z,28.87
2023-04-08T08:28:08.069Z,28.51
2023-04-08T08:30:44.102Z,28.64
2023-04-08T08:33:12.224Z,28.72
2023-04-08T08:35:51.073Z,28.67
2023-04-08T08:38:27.497Z,28.70
2023-04-08T08:41:05.830Z,28.71
2023-04-08T08:43:41.767Z,28.61
2023-04-08T08:46:24.171Z,28.59
2023-04-08T08:48:57.256Z,28.62
2023-04-08T08:51:30.564Z,28.89
2023-04-08T08:54:09.336Z,28.86
2023-04-08T08:56:44.340Z,28.73
2023-04-08T08:59:23.868Z,28.77
2023-04-08T09:02:19.222Z,28.80
2023-04-08T09:05:29.336Z,28.77
2023-04-08T09:25:24.066Z,28.76
2023-04-08T13:02:43.461Z,27.47
2023-04-08T13:22:00.625Z,27.36
2023-04-08T13:24:38.321Z,27.21
2023-04-08T13:27:16.424Z,27.15
2023-04-08T13:29:53.458Z,27.21
2023-04-08T13:32:26.512Z,27.18
2023-04-08T13:34:59.358Z,27.15
2023-04-08T13:37:32.303Z,27.00
2023-04-08T13:40:08.930Z,26.95
2023-04-08T13:42:48.862Z,26.80
2023-04-08T13:45:31.891Z,27.06
2023-04-08T13:48:05.044Z,26.81
2023-04-08T13:50:41.752Z,27.33
2023-04-08T13:53:19.796Z,26.79
2023-04-08T13:55:56.045Z,27.09
2023-04-08T13:58:28.972Z,27.05
2023-04-08T14:01:01.841Z,27.06
2023-04-08T14:03:40.482Z,27.28
2023-04-08T14:06:18.592Z,27.05
2023-04-08T14:08:54.642Z,27.06
2023-04-08T14:11:27.269Z,27.06
2023-04-08T14:14:02.963Z,27.14
2023-04-08T14:16:38.730Z,27.05
2023-04-08T14:19:21.447Z,27.06
2023-04-08T14:22:02.626Z,27.02
2023-04-08T14:24:38.133Z,27.03
2023-04-08T14:27:13.366Z,26.90
2023-04-08T14:29:54.972Z,26.87
2023-04-08T14:32:34.577Z,26.84
2023-04-08T14:35:10.530Z,26.91
2023-04-08T14:37:40.911Z,26.91
2023-04-08T14:40:18.964Z,26.77
2023-04-08T14:42:57.630Z,26.93
2023-04-08T14:45:33.132Z,26.72
2023-04-08T14:48:06.769Z,26.78
2023-04-08T14:50:42.437Z,26.82
2023-04-08T14:53:17.999Z,26.92
2023-04-08T14:55:56.384Z,26.89
2023-04-08T14:58:33.821Z,26.81
2023-04-08T15:01:09.518Z,26.96
2023-04-08T15:03:42.282Z,27.18
2023-04-08T15:06:17.834Z,26.95
2023-04-08T15:08:53.754Z,27.06
2023-04-08T15:11:32.432Z,27.21
2023-04-08T15:14:04.341Z,27.25
2023-04-08T15:16:40.107Z,27.10
2023-04-08T15:19:18.580Z,27.11
2023-04-08T15:21:51.337Z,26.86
2023-04-08T15:24:27.384Z,26.97
2023-04-08T15:27:02.995Z,26.98
2023-04-08T15:29:42.876Z,27.37
2023-04-08T15:32:20.087Z,27.10
2023-04-08T15:34:55.856Z,27.12
2023-04-08T15:37:28.559Z,27.15
2023-04-08T15:40:12.168Z,26.88
2023-04-08T15:42:40.445Z,27.01
2023-04-08T15:45:13.768Z,26.98
2023-04-08T15:47:50.623Z,27.01
2023-04-08T15:50:40.852Z,27.02
2023-04-08T15:53:19.821Z,27.18
2023-04-08T15:55:58.056Z,27.06
2023-04-08T15:58:25.919Z,27.38
2023-04-08T16:01:10.760Z,27.23
2023-04-08T16:03:46.501Z,27.56
2023-04-08T16:06:24.249Z,27.33
2023-04-08T16:08:57.343Z,27.30
2023-04-08T16:11:36.698Z,27.40
2023-04-08T16:14:14.523Z,27.53
2023-04-08T16:16:51.365Z,27.36
2023-04-08T16:19:27.497Z,27.53
2023-04-08T16:22:08.195Z,27.49
2023-04-08T16:24:41.170Z,27.65
2023-04-08T16:27:17.169Z,27.62
2023-04-08T16:29:52.426Z,27.58
2023-04-08T16:32:23.969Z,27.49
2023-04-08T16:35:06.700Z,27.94
2023-04-08T16:37:42.695Z,28.21
2023-04-08T16:40:18.167Z,28.08
2023-04-08T16:42:51.081Z,28.20
2023-04-08T16:45:23.937Z,28.12
2023-04-08T16:48:00.551Z,28.54
2023-04-08T16:50:40.388Z,28.38
2023-04-08T16:53:16.325Z,28.36
2023-04-08T16:55:55.090Z,28.27
2023-04-08T16:58:33.688Z,28.58
2023-04-08T17:01:12.036Z,28.58
2023-04-08T17:03:52.386Z,28.89
2023-04-08T17:06:28.412Z,29.03
2023-04-08T17:09:04.104Z,29.01
2023-04-08T17:11:42.333Z,28.98
2023-04-08T17:14:18.154Z,28.94
2023-04-08T17:16:54.216Z,29.09
2023-04-08T17:19:30.096Z,28.94
2023-04-08T17:22:06.127Z,29.06
2023-04-08T17:24:41.210Z,29.16
2023-04-08T17:27:23.024Z,29.04
2023-04-08T17:30:01.675Z,29.12
2023-04-08T17:32:40.622Z,28.85
2023-04-08T17:35:16.282Z,29.15
2023-04-08T17:37:50.295Z,29.25
2023-04-08T17:40:22.872Z,29.23
2023-04-08T17:42:55.347Z,29.10
2023-04-08T17:45:28.176Z,29.14
2023-04-08T17:48:06.868Z,29.31
2023-04-08T17:50:50.735Z,29.08
2023-04-08T17:53:27.135Z,29.21
2023-04-08T17:56:06.277Z,29.14
2023-04-08T17:58:48.941Z,29.22
2023-04-08T18:01:27.779Z,29.26
2023-04-08T18:04:10.289Z,29.19
2023-04-08T18:06:46.922Z,29.28
2023-04-08T18:09:28.543Z,29.52
2023-04-08T18:12:07.750Z,29.46
2023-04-08T18:14:44.032Z,29.61
2023-04-08T18:17:20.482Z,29.40
2023-04-08T18:20:02.653Z,29.68
2023-04-08T18:22:41.775Z,29.61
2023-04-08T18:25:19.721Z,29.35
2023-04-08T18:28:02.836Z,29.71
2023-04-08T18:30:43.795Z,29.51
2023-04-08T18:33:19.586Z,29.56
2023-04-08T18:35:59.547Z,29.73
2023-04-08T18:38:40.230Z,29.67
2023-04-08T18:41:20.949Z,29.72
2023-04-08T18:44:04.158Z,29.62
2023-04-08T18:46:42.624Z,29.63
2023-04-08T18:49:20.525Z,29.94
2023-04-08T18:52:03.673Z,29.61
2023-04-08T18:54:44.220Z,30.01
2023-04-08T18:57:25.102Z,29.60
2023-04-08T19:00:04.925Z,29.60
2023-04-08T19:02:43.453Z,30.03
2023-04-08T19:05:23.747Z,29.85
2023-04-08T19:08:06.377Z,29.70
2023-04-08T19:10:45.311Z,30.04
2023-04-08T19:13:26.992Z,30.26
2023-04-08T19:16:05.369Z,30.24
2023-04-08T19:18:38.209Z,30.12
2023-04-08T19:21:15.118Z,30.30
2023-04-08T19:23:56.124Z,30.15
2023-04-08T19:26:36.200Z,30.19
2023-04-08T19:29:13.093Z,30.21
2023-04-08T19:31:55.912Z,30.26
2023-04-08T19:34:34.689Z,30.14
2023-04-08T19:37:10.848Z,30.77
2023-04-08T19:39:52.878Z,30.44
2023-04-08T19:42:29.602Z,30.69
2023-04-08T19:45:06.223Z,30.68
2023-04-08T19:47:50.888Z,30.60
2023-04-08T19:50:32.901Z,30.66
2023-04-08T19:53:11.796Z,30.81
2023-04-08T19:55:47.450Z,30.78
2023-04-08T19:58:25.823Z,30.79
2023-04-08T20:01:06.714Z,30.79
2023-04-08T20:03:44.490Z,30.99
2023-04-08T20:06:23.319Z,30.92
2023-04-08T20:08:57.728Z,30.85
2023-04-08T20:11:42.334Z,31.15
2023-04-08T20:14:16.998Z,30.78
2023-04-08T20:16:53.401Z,31.17
2023-04-08T20:19:31.795Z,31.27
2023-04-08T20:22:10.689Z,31.06
2023-04-08T20:24:49.018Z,30.99
2023-04-08T20:27:35.716Z,31.21
2023-04-08T20:30:09.494Z,31.22
2023-04-08T20:32:40.341Z,31.28
2023-04-08T20:35:16.942Z,31.13
2023-04-08T20:37:51.625Z,31.35
2023-04-08T20:40:23.455Z,31.05
2023-04-08T20:42:58.220Z,31.22
2023-04-08T20:45:34.162Z,31.02
2023-04-08T20:48:09.929Z,31.35
2023-04-08T20:50:53.686Z,31.45
2023-04-08T20:53:34.445Z,31.42
2023-04-08T20:56:10.389Z,31.39
2023-04-08T20:58:46.355Z,31.31
2023-04-08T21:01:21.672Z,31.28
2023-04-08T21:03:59.751Z,31.57
2023-04-08T21:06:45.671Z,31.71
2023-04-08T21:09:18.734Z,31.34
2023-04-08T21:12:04.727Z,31.56
2023-04-08T21:14:40.631Z,31.36
2023-04-08T21:17:22.379Z,31.63
2023-04-08T21:19:57.858Z,31.62
2023-04-08T21:22:33.208Z,31.44
2023-04-08T21:25:13.785Z,31.54
2023-04-08T21:27:49.448Z,31.65
2023-04-08T21:30:22.537Z,31.60
2023-04-08T21:33:03.645Z,31.74
2023-04-08T21:35:42.998Z,31.56
2023-04-08T21:38:21.679Z,31.66
2023-04-08T21:41:01.177Z,31.53
2023-04-08T21:43:37.034Z,31.43
2023-04-08T21:46:15.986Z,31.91
2023-04-08T21:48:48.756Z,31.78
2023-04-08T21:51:24.353Z,31.95
2023-04-08T21:53:57.237Z,31.89
2023-04-08T21:56:29.664Z,31.79
2023-04-08T21:59:02.701Z,31.79
2023-04-08T22:01:41.499Z,31.71
2023-04-08T22:04:20.153Z,31.78
2023-04-08T22:06:56.302Z,31.73
2023-04-08T22:09:37.510Z,31.87
2023-04-08T22:12:11.200Z,31.72
2023-04-08T22:14:43.728Z,31.90
2023-04-08T22:17:17.956Z,31.59
2023-04-08T22:19:54.473Z,31.55
2023-04-08T22:22:29.481Z,31.70
2023-04-08T22:25:04.826Z,31.50
2023-04-08T22:27:46.111Z,31.57
2023-04-08T22:30:27.577Z,31.50
2023-04-08T22:33:06.348Z,31.61
2023-04-08T22:35:45.578Z,31.48
2023-04-08T22:38:23.535Z,31.43
2023-04-08T22:41:18.456Z,31.38
2023-04-08T22:43:51.468Z,31.33
2023-04-08T22:46:26.734Z,31.54
2023-04-08T22:49:02.477Z,31.34
2023-04-08T22:51:38.319Z,31.54
2023-04-08T22:54:28.078Z,31.46
2023-04-08T22:57:06.882Z,31.42
2023-04-08T22:59:42.630Z,31.30
2023-04-08T23:02:15.791Z,31.52
2023-04-08T23:04:53.295Z,31.37
2023-04-08T23:07:29.181Z,31.40
2023-04-08T23:10:04.646Z,31.38
2023-04-08T23:12:43.145Z,31.50
2023-04-08T23:15:21.588Z,31.40
2023-04-08T23:18:00.390Z,31.52
2023-04-08T23:20:35.503Z,31.67
2023-04-08T23:23:10.878Z,31.67
2023-04-08T23:25:55.865Z,31.48
2023-04-08T23:28:29.175Z,31.78
2023-04-08T23:31:13.052Z,31.65
2023-04-08T23:33:51.839Z,31.66
2023-04-08T23:36:29.804Z,31.76
2023-04-08T23:39:05.788Z,31.82
2023-04-08T23:41:41.395Z,31.78
2023-04-08T23:44:16.312Z,31.90
2023-04-08T23:46:51.937Z,31.86
2023-04-08T23:49:27.058Z,31.82
2023-04-08T23:52:04.834Z,31.98
2023-04-08T23:54:40.344Z,31.97
2023-04-08T23:57:16.600Z,32.12
2023-04-08T23:59:52.347Z,32.09
